sensor_id;sensor_type;location;lat;lon;timestamp;temperature;humidity
17385;DHT22;8810;48.680;8.894;2022-10-26T00:00:43;11.30;99.90
17385;DHT22;8810;48.680;8.894;2022-10-26T00:03:10;11.40;99.90
17385;DHT22;8810;48.680;8.894;2022-10-26T00:05:37;11.40;99.90
17385;DHT22;8810;48.680;8.894;2022-10-26T00:08:04;11.30;99.90
17385;DHT22;8810;48.680;8.894;2022-10-26T00:10:33;11.30;99.90
17385;DHT22;8810;48.680;8.894;2022-10-26T00:13:02;11.30;99.90
17385;DHT22;8810;48.680;8.894;2022-10-26T00:15:30;11.30;99.90
17385;DHT22;8810;48.680;8.894;2022-10-26T00:17:57;11.20;99.90
17385;DHT22;8810;48.680;8.894;2022-10-26T00:20:24;11.20;99.90
17385;DHT22;8810;48.680;8.894;2022-10-26T00:22:50;11.30;99.90
17385;DHT22;8810;48.680;8.894;2022-10-26T00:25:17;11.30;99.90
17385;DHT22;8810;48.680;8.894;2022-10-26T00:27:44;11.30;99.90
17385;DHT22;8810;48.680;8.894;2022-10-26T00:30:12;11.30;99.90
17385;DHT22;8810;48.680;8.894;2022-10-26T00:32:39;11.30;99.90
17385;DHT22;8810;48.680;8.894;2022-10-26T00:35:06;11.30;99.90
17385;DHT22;8810;48.680;8.894;2022-10-26T00:37:33;11.30;99.90
17385;DHT22;8810;48.680;8.894;2022-10-26T00:40:00;11.30;99.90
17385;DHT22;8810;48.680;8.894;2022-10-26T00:42:27;11.30;99.90
17385;DHT22;8810;48.680;8.894;2022-10-26T00:44:56;11.30;99.90
17385;DHT22;8810;48.680;8.894;2022-10-26T00:47:32;11.30;99.90
17385;DHT22;8810;48.680;8.894;2022-10-26T00:50:03;11.40;99.90
17385;DHT22;8810;48.680;8.894;2022-10-26T00:52:32;11.40;99.90
17385;DHT22;8810;48.680;8.894;2022-10-26T00:55:00;11.40;99.90
17385;DHT22;8810;48.680;8.894;2022-10-26T00:57:27;11.50;99.90
17385;DHT22;8810;48.680;8.894;2022-10-26T00:59:55;11.40;99.90
17385;DHT22;8810;48.680;8.894;2022-10-26T01:02:22;11.50;99.90
17385;DHT22;8810;48.680;8.894;2022-10-26T01:04:51;11.40;99.90
17385;DHT22;8810;48.680;8.894;2022-10-26T01:07:19;11.40;99.90
17385;DHT22;8810;48.680;8.894;2022-10-26T01:09:46;11.40;99.90
17385;DHT22;8810;48.680;8.894;2022-10-26T01:12:14;11.40;99.90
17385;DHT22;8810;48.680;8.894;2022-10-26T01:14:40;11.40;99.90
17385;DHT22;8810;48.680;8.894;2022-10-26T01:17:19;11.40;99.90
17385;DHT22;8810;48.680;8.894;2022-10-26T01:20:24;11.40;99.90
17385;DHT22;8810;48.680;8.894;2022-10-26T01:23:02;11.40;99.90
17385;DHT22;8810;48.680;8.894;2022-10-26T01:25:40;11.30;99.90
17385;DHT22;8810;48.680;8.894;2022-10-26T01:28:30;11.40;99.90
17385;DHT22;8810;48.680;8.894;2022-10-26T01:31:00;11.40;99.90
17385;DHT22;8810;48.680;8.894;2022-10-26T01:33:35;11.30;99.90
17385;DHT22;8810;48.680;8.894;2022-10-26T01:36:10;11.40;99.90
17385;DHT22;8810;48.680;8.894;2022-10-26T01:38:43;11.30;99.90
17385;DHT22;8810;48.680;8.894;2022-10-26T01:41:16;11.40;99.90
17385;DHT22;8810;48.680;8.894;2022-10-26T01:43:49;11.30;99.90
17385;DHT22;8810;48.680;8.894;2022-10-26T01:46:20;11.30;99.90
17385;DHT22;8810;48.680;8.894;2022-10-26T01:48:48;11.40;99.90
17385;DHT22;8810;48.680;8.894;2022-10-26T01:51:17;11.40;99.90
17385;DHT22;8810;48.680;8.894;2022-10-26T01:53:45;11.40;99.90
17385;DHT22;8810;48.680;8.894;2022-10-26T01:56:14;11.40;99.90
17385;DHT22;8810;48.680;8.894;2022-10-26T01:59:12;11.40;99.90
17385;DHT22;8810;48.680;8.894;2022-10-26T02:04:55;11.30;99.90
17385;DHT22;8810;48.680;8.894;2022-10-26T02:07:33;11.30;99.90
17385;DHT22;8810;48.680;8.894;2022-10-26T02:10:12;11.30;99.90
17385;DHT22;8810;48.680;8.894;2022-10-26T02:12:48;11.30;99.90
17385;DHT22;8810;48.680;8.894;2022-10-26T02:15:21;11.30;99.90
17385;DHT22;8810;48.680;8.894;2022-10-26T02:17:50;11.20;99.90
17385;DHT22;8810;48.680;8.894;2022-10-26T02:20:24;11.20;99.90
17385;DHT22;8810;48.680;8.894;2022-10-26T02:22:54;11.20;99.90
17385;DHT22;8810;48.680;8.894;2022-10-26T02:25:23;11.20;99.90
17385;DHT22;8810;48.680;8.894;2022-10-26T02:27:55;11.20;99.90
17385;DHT22;8810;48.680;8.894;2022-10-26T02:30:23;11.20;99.90
17385;DHT22;8810;48.680;8.894;2022-10-26T02:32:52;11.30;99.90
17385;DHT22;8810;48.680;8.894;2022-10-26T02:35:24;11.30;99.90
17385;DHT22;8810;48.680;8.894;2022-10-26T02:37:52;11.20;99.90
17385;DHT22;8810;48.680;8.894;2022-10-26T02:40:22;11.20;99.90
17385;DHT22;8810;48.680;8.894;2022-10-26T02:42:51;11.30;99.90
17385;DHT22;8810;48.680;8.894;2022-10-26T02:45:22;11.30;99.90
17385;DHT22;8810;48.680;8.894;2022-10-26T02:47:51;11.20;99.90
17385;DHT22;8810;48.680;8.894;2022-10-26T02:50:23;11.30;99.90
17385;DHT22;8810;48.680;8.894;2022-10-26T02:52:58;11.30;99.90
17385;DHT22;8810;48.680;8.894;2022-10-26T02:55:29;11.30;99.90
17385;DHT22;8810;48.680;8.894;2022-10-26T02:57:59;11.30;99.90
17385;DHT22;8810;48.680;8.894;2022-10-26T03:00:28;11.20;99.90
17385;DHT22;8810;48.680;8.894;2022-10-26T03:02:57;11.30;99.90
17385;DHT22;8810;48.680;8.894;2022-10-26T03:05:30;11.30;99.90
17385;DHT22;8810;48.680;8.894;2022-10-26T03:07:59;11.30;99.90
17385;DHT22;8810;48.680;8.894;2022-10-26T03:10:26;11.30;99.90
17385;DHT22;8810;48.680;8.894;2022-10-26T03:12:53;11.30;99.90
17385;DHT22;8810;48.680;8.894;2022-10-26T03:15:20;11.30;99.90
17385;DHT22;8810;48.680;8.894;2022-10-26T03:17:47;11.40;99.90
17385;DHT22;8810;48.680;8.894;2022-10-26T03:20:14;11.30;99.90
17385;DHT22;8810;48.680;8.894;2022-10-26T03:22:42;11.40;99.90
17385;DHT22;8810;48.680;8.894;2022-10-26T03:25:09;11.40;99.90
17385;DHT22;8810;48.680;8.894;2022-10-26T03:27:36;11.40;99.90
17385;DHT22;8810;48.680;8.894;2022-10-26T03:30:04;11.40;99.90
17385;DHT22;8810;48.680;8.894;2022-10-26T03:32:31;11.50;99.90
17385;DHT22;8810;48.680;8.894;2022-10-26T03:34:58;11.40;99.90
17385;DHT22;8810;48.680;8.894;2022-10-26T03:37:25;11.50;99.90
17385;DHT22;8810;48.680;8.894;2022-10-26T03:39:53;11.50;99.90
17385;DHT22;8810;48.680;8.894;2022-10-26T03:42:20;11.50;99.90
17385;DHT22;8810;48.680;8.894;2022-10-26T03:44:46;11.50;99.90
17385;DHT22;8810;48.680;8.894;2022-10-26T03:47:13;11.60;99.90
17385;DHT22;8810;48.680;8.894;2022-10-26T03:49:40;11.60;99.90
17385;DHT22;8810;48.680;8.894;2022-10-26T03:52:07;11.70;99.90
17385;DHT22;8810;48.680;8.894;2022-10-26T03:54:34;11.80;99.90
17385;DHT22;8810;48.680;8.894;2022-10-26T03:57:02;11.90;99.90
17385;DHT22;8810;48.680;8.894;2022-10-26T03:59:28;12.00;99.90
17385;DHT22;8810;48.680;8.894;2022-10-26T04:01:55;12.10;99.90
17385;DHT22;8810;48.680;8.894;2022-10-26T04:04:22;12.20;99.90
17385;DHT22;8810;48.680;8.894;2022-10-26T04:06:49;12.20;99.90
17385;DHT22;8810;48.680;8.894;2022-10-26T04:09:16;12.40;99.90
17385;DHT22;8810;48.680;8.894;2022-10-26T04:11:43;12.40;99.90
17385;DHT22;8810;48.680;8.894;2022-10-26T04:14:11;12.50;99.90
17385;DHT22;8810;48.680;8.894;2022-10-26T04:16:37;12.50;99.90
17385;DHT22;8810;48.680;8.894;2022-10-26T04:19:05;12.50;99.90
17385;DHT22;8810;48.680;8.894;2022-10-26T04:21:32;12.50;99.90
17385;DHT22;8810;48.680;8.894;2022-10-26T04:23:59;12.50;99.90
17385;DHT22;8810;48.680;8.894;2022-10-26T04:26:26;12.50;99.90
17385;DHT22;8810;48.680;8.894;2022-10-26T04:28:53;12.50;99.90
17385;DHT22;8810;48.680;8.894;2022-10-26T04:31:21;12.50;99.90
17385;DHT22;8810;48.680;8.894;2022-10-26T04:33:48;12.50;99.90
17385;DHT22;8810;48.680;8.894;2022-10-26T04:36:15;12.50;99.90
17385;DHT22;8810;48.680;8.894;2022-10-26T04:38:42;12.50;99.90
17385;DHT22;8810;48.680;8.894;2022-10-26T04:41:09;12.50;99.90
17385;DHT22;8810;48.680;8.894;2022-10-26T04:43:35;12.50;99.90
17385;DHT22;8810;48.680;8.894;2022-10-26T04:46:02;12.50;99.90
17385;DHT22;8810;48.680;8.894;2022-10-26T04:48:30;12.50;99.90
17385;DHT22;8810;48.680;8.894;2022-10-26T04:50:57;12.40;99.90
17385;DHT22;8810;48.680;8.894;2022-10-26T04:53:24;12.40;99.90
17385;DHT22;8810;48.680;8.894;2022-10-26T04:55:55;12.40;99.90
17385;DHT22;8810;48.680;8.894;2022-10-26T04:58:22;12.40;99.90
17385;DHT22;8810;48.680;8.894;2022-10-26T05:00:49;12.40;99.90
17385;DHT22;8810;48.680;8.894;2022-10-26T05:03:16;12.40;99.90
17385;DHT22;8810;48.680;8.894;2022-10-26T05:05:44;12.40;99.90
17385;DHT22;8810;48.680;8.894;2022-10-26T05:08:12;12.40;99.90
17385;DHT22;8810;48.680;8.894;2022-10-26T05:10:39;12.40;99.90
17385;DHT22;8810;48.680;8.894;2022-10-26T05:13:08;12.40;99.90
17385;DHT22;8810;48.680;8.894;2022-10-26T05:15:34;12.40;99.90
17385;DHT22;8810;48.680;8.894;2022-10-26T05:18:03;12.40;99.90
17385;DHT22;8810;48.680;8.894;2022-10-26T05:20:32;12.40;99.90
17385;DHT22;8810;48.680;8.894;2022-10-26T05:23:01;12.40;99.90
17385;DHT22;8810;48.680;8.894;2022-10-26T05:25:30;12.40;99.90
17385;DHT22;8810;48.680;8.894;2022-10-26T05:27:57;12.40;99.90
17385;DHT22;8810;48.680;8.894;2022-10-26T05:30:24;12.50;99.90
17385;DHT22;8810;48.680;8.894;2022-10-26T05:32:53;12.50;99.90
17385;DHT22;8810;48.680;8.894;2022-10-26T05:35:20;12.50;99.90
17385;DHT22;8810;48.680;8.894;2022-10-26T05:37:46;12.50;99.90
17385;DHT22;8810;48.680;8.894;2022-10-26T05:40:15;12.60;99.90
17385;DHT22;8810;48.680;8.894;2022-10-26T05:42:42;12.60;99.90
17385;DHT22;8810;48.680;8.894;2022-10-26T05:45:09;12.60;99.90
17385;DHT22;8810;48.680;8.894;2022-10-26T05:47:37;12.60;99.90
17385;DHT22;8810;48.680;8.894;2022-10-26T05:50:04;12.60;99.90
17385;DHT22;8810;48.680;8.894;2022-10-26T05:52:37;12.60;99.90
17385;DHT22;8810;48.680;8.894;2022-10-26T05:55:05;12.60;99.90
17385;DHT22;8810;48.680;8.894;2022-10-26T05:57:34;12.50;99.90
17385;DHT22;8810;48.680;8.894;2022-10-26T06:00:06;12.60;99.90
17385;DHT22;8810;48.680;8.894;2022-10-26T06:02:39;12.60;99.90
17385;DHT22;8810;48.680;8.894;2022-10-26T06:05:09;12.60;99.90
17385;DHT22;8810;48.680;8.894;2022-10-26T06:07:39;12.60;99.90
17385;DHT22;8810;48.680;8.894;2022-10-26T06:10:08;12.60;99.90
17385;DHT22;8810;48.680;8.894;2022-10-26T06:12:38;12.70;99.90
17385;DHT22;8810;48.680;8.894;2022-10-26T06:15:06;12.60;99.90
17385;DHT22;8810;48.680;8.894;2022-10-26T06:17:41;12.70;99.90
17385;DHT22;8810;48.680;8.894;2022-10-26T06:20:23;12.70;99.90
17385;DHT22;8810;48.680;8.894;2022-10-26T06:23:03;12.70;99.90
17385;DHT22;8810;48.680;8.894;2022-10-26T06:25:42;12.70;99.90
17385;DHT22;8810;48.680;8.894;2022-10-26T06:28:23;12.80;99.90
17385;DHT22;8810;48.680;8.894;2022-10-26T06:30:52;12.80;99.90
17385;DHT22;8810;48.680;8.894;2022-10-26T06:33:20;12.90;99.90
17385;DHT22;8810;48.680;8.894;2022-10-26T06:35:52;12.90;99.90
17385;DHT22;8810;48.680;8.894;2022-10-26T06:38:25;12.90;99.90
17385;DHT22;8810;48.680;8.894;2022-10-26T06:40:55;13.00;99.90
17385;DHT22;8810;48.680;8.894;2022-10-26T06:43:25;13.10;99.90
17385;DHT22;8810;48.680;8.894;2022-10-26T06:45:59;13.20;99.90
17385;DHT22;8810;48.680;8.894;2022-10-26T06:48:34;13.20;99.90
17385;DHT22;8810;48.680;8.894;2022-10-26T06:51:13;13.20;99.90
17385;DHT22;8810;48.680;8.894;2022-10-26T06:53:42;13.20;99.90
17385;DHT22;8810;48.680;8.894;2022-10-26T06:56:12;13.20;99.90
17385;DHT22;8810;48.680;8.894;2022-10-26T06:58:41;13.20;99.90
17385;DHT22;8810;48.680;8.894;2022-10-26T07:01:10;13.20;99.90
17385;DHT22;8810;48.680;8.894;2022-10-26T07:03:38;13.30;99.90
17385;DHT22;8810;48.680;8.894;2022-10-26T07:06:05;13.30;99.90
17385;DHT22;8810;48.680;8.894;2022-10-26T07:08:32;13.40;99.90
17385;DHT22;8810;48.680;8.894;2022-10-26T07:10:59;13.40;99.90
17385;DHT22;8810;48.680;8.894;2022-10-26T07:13:25;13.50;99.90
17385;DHT22;8810;48.680;8.894;2022-10-26T07:15:54;13.50;99.90
17385;DHT22;8810;48.680;8.894;2022-10-26T07:18:20;13.50;99.90
17385;DHT22;8810;48.680;8.894;2022-10-26T07:20:47;13.50;99.90
17385;DHT22;8810;48.680;8.894;2022-10-26T07:23:14;13.60;99.90
17385;DHT22;8810;48.680;8.894;2022-10-26T07:25:41;13.60;99.90
17385;DHT22;8810;48.680;8.894;2022-10-26T07:28:09;13.60;99.90
17385;DHT22;8810;48.680;8.894;2022-10-26T07:30:36;13.60;99.90
17385;DHT22;8810;48.680;8.894;2022-10-26T07:33:07;13.60;99.90
17385;DHT22;8810;48.680;8.894;2022-10-26T07:35:35;13.70;99.90
17385;DHT22;8810;48.680;8.894;2022-10-26T07:38:02;13.70;99.90
17385;DHT22;8810;48.680;8.894;2022-10-26T07:40:29;13.70;99.90
17385;DHT22;8810;48.680;8.894;2022-10-26T07:42:56;13.80;99.90
17385;DHT22;8810;48.680;8.894;2022-10-26T07:45:24;13.90;99.90
17385;DHT22;8810;48.680;8.894;2022-10-26T07:47:51;13.90;99.90
17385;DHT22;8810;48.680;8.894;2022-10-26T07:50:19;13.90;99.90
17385;DHT22;8810;48.680;8.894;2022-10-26T07:52:46;14.00;99.90
17385;DHT22;8810;48.680;8.894;2022-10-26T07:55:12;14.00;99.90
17385;DHT22;8810;48.680;8.894;2022-10-26T07:57:39;14.10;99.90
17385;DHT22;8810;48.680;8.894;2022-10-26T08:00:08;14.30;99.90
17385;DHT22;8810;48.680;8.894;2022-10-26T08:02:35;14.40;99.90
17385;DHT22;8810;48.680;8.894;2022-10-26T08:05:03;14.50;99.90
17385;DHT22;8810;48.680;8.894;2022-10-26T08:07:31;14.50;99.90
17385;DHT22;8810;48.680;8.894;2022-10-26T08:09:58;14.50;99.90
17385;DHT22;8810;48.680;8.894;2022-10-26T08:12:25;14.50;99.90
17385;DHT22;8810;48.680;8.894;2022-10-26T08:14:52;14.60;99.90
17385;DHT22;8810;48.680;8.894;2022-10-26T08:17:18;14.50;99.90
17385;DHT22;8810;48.680;8.894;2022-10-26T08:19:47;14.50;99.90
17385;DHT22;8810;48.680;8.894;2022-10-26T08:22:14;14.50;99.90
17385;DHT22;8810;48.680;8.894;2022-10-26T08:24:42;14.50;99.90
17385;DHT22;8810;48.680;8.894;2022-10-26T08:27:11;14.50;99.90
17385;DHT22;8810;48.680;8.894;2022-10-26T08:29:38;14.50;99.90
17385;DHT22;8810;48.680;8.894;2022-10-26T08:32:05;14.60;99.90
17385;DHT22;8810;48.680;8.894;2022-10-26T08:34:32;14.60;99.90
17385;DHT22;8810;48.680;8.894;2022-10-26T08:36:59;14.70;99.90
17385;DHT22;8810;48.680;8.894;2022-10-26T08:39:26;14.70;99.90
17385;DHT22;8810;48.680;8.894;2022-10-26T08:42:01;14.80;99.90
17385;DHT22;8810;48.680;8.894;2022-10-26T08:44:33;14.90;99.90
17385;DHT22;8810;48.680;8.894;2022-10-26T08:47:05;15.00;99.90
17385;DHT22;8810;48.680;8.894;2022-10-26T08:49:40;15.10;99.90
17385;DHT22;8810;48.680;8.894;2022-10-26T08:52:11;15.20;99.90
17385;DHT22;8810;48.680;8.894;2022-10-26T08:54:42;15.30;99.90
17385;DHT22;8810;48.680;8.894;2022-10-26T08:57:16;15.40;99.90
17385;DHT22;8810;48.680;8.894;2022-10-26T08:59:48;15.40;99.90
17385;DHT22;8810;48.680;8.894;2022-10-26T09:02:16;15.50;99.90
17385;DHT22;8810;48.680;8.894;2022-10-26T09:04:44;15.50;99.90
17385;DHT22;8810;48.680;8.894;2022-10-26T09:07:18;15.60;99.90
17385;DHT22;8810;48.680;8.894;2022-10-26T09:09:55;15.60;99.90
17385;DHT22;8810;48.680;8.894;2022-10-26T09:12:36;15.60;99.90
17385;DHT22;8810;48.680;8.894;2022-10-26T09:15:12;15.60;99.90
17385;DHT22;8810;48.680;8.894;2022-10-26T09:17:46;15.80;99.90
17385;DHT22;8810;48.680;8.894;2022-10-26T09:20:29;16.10;99.90
17385;DHT22;8810;48.680;8.894;2022-10-26T09:23:12;16.40;99.90
17385;DHT22;8810;48.680;8.894;2022-10-26T09:25:45;16.90;99.90
17385;DHT22;8810;48.680;8.894;2022-10-26T09:28:17;17.50;99.90
17385;DHT22;8810;48.680;8.894;2022-10-26T09:30:45;18.10;99.90
17385;DHT22;8810;48.680;8.894;2022-10-26T09:33:15;18.70;99.90
17385;DHT22;8810;48.680;8.894;2022-10-26T09:35:44;19.10;99.90
17385;DHT22;8810;48.680;8.894;2022-10-26T09:38:18;19.50;99.90
17385;DHT22;8810;48.680;8.894;2022-10-26T09:40:52;20.00;99.90
17385;DHT22;8810;48.680;8.894;2022-10-26T09:43:25;20.10;99.90
17385;DHT22;8810;48.680;8.894;2022-10-26T09:45:53;20.10;99.90
17385;DHT22;8810;48.680;8.894;2022-10-26T09:48:28;20.10;99.90
17385;DHT22;8810;48.680;8.894;2022-10-26T09:50:56;19.90;99.90
17385;DHT22;8810;48.680;8.894;2022-10-26T09:53:24;19.80;99.90
17385;DHT22;8810;48.680;8.894;2022-10-26T09:55:59;19.80;99.90
17385;DHT22;8810;48.680;8.894;2022-10-26T09:58:30;19.80;99.90
17385;DHT22;8810;48.680;8.894;2022-10-26T10:00:58;20.00;99.90
17385;DHT22;8810;48.680;8.894;2022-10-26T10:03:26;20.30;99.90
17385;DHT22;8810;48.680;8.894;2022-10-26T10:06:13;20.70;99.90
17385;DHT22;8810;48.680;8.894;2022-10-26T10:08:41;21.00;99.90
17385;DHT22;8810;48.680;8.894;2022-10-26T10:11:09;21.30;99.90
17385;DHT22;8810;48.680;8.894;2022-10-26T10:13:39;21.40;99.90
17385;DHT22;8810;48.680;8.894;2022-10-26T10:16:11;21.40;99.90
17385;DHT22;8810;48.680;8.894;2022-10-26T10:18:39;21.30;99.90
17385;DHT22;8810;48.680;8.894;2022-10-26T10:21:08;21.20;99.90
17385;DHT22;8810;48.680;8.894;2022-10-26T10:23:36;21.00;99.90
17385;DHT22;8810;48.680;8.894;2022-10-26T10:26:11;20.90;99.90
17385;DHT22;8810;48.680;8.894;2022-10-26T10:28:40;20.90;99.90
17385;DHT22;8810;48.680;8.894;2022-10-26T10:31:18;21.00;99.90
17385;DHT22;8810;48.680;8.894;2022-10-26T10:33:46;21.10;99.90
17385;DHT22;8810;48.680;8.894;2022-10-26T10:36:15;21.40;99.90
17385;DHT22;8810;48.680;8.894;2022-10-26T10:38:45;21.50;99.90
17385;DHT22;8810;48.680;8.894;2022-10-26T10:41:16;21.80;99.90
17385;DHT22;8810;48.680;8.894;2022-10-26T10:43:47;21.70;99.90
17385;DHT22;8810;48.680;8.894;2022-10-26T10:46:20;21.50;99.90
17385;DHT22;8810;48.680;8.894;2022-10-26T10:48:54;21.20;99.90
17385;DHT22;8810;48.680;8.894;2022-10-26T10:51:23;20.90;99.90
17385;DHT22;8810;48.680;8.894;2022-10-26T10:53:52;20.60;99.90
17385;DHT22;8810;48.680;8.894;2022-10-26T10:56:34;20.30;99.90
17385;DHT22;8810;48.680;8.894;2022-10-26T10:59:20;20.10;99.90
17385;DHT22;8810;48.680;8.894;2022-10-26T11:01:50;20.00;99.90
17385;DHT22;8810;48.680;8.894;2022-10-26T11:04:43;19.80;99.90
17385;DHT22;8810;48.680;8.894;2022-10-26T11:07:14;19.70;99.90
17385;DHT22;8810;48.680;8.894;2022-10-26T11:09:45;19.60;99.90
17385;DHT22;8810;48.680;8.894;2022-10-26T11:12:15;19.50;99.90
17385;DHT22;8810;48.680;8.894;2022-10-26T11:14:49;19.50;99.90
17385;DHT22;8810;48.680;8.894;2022-10-26T11:17:21;19.50;99.90
17385;DHT22;8810;48.680;8.894;2022-10-26T11:19:53;19.50;99.90
17385;DHT22;8810;48.680;8.894;2022-10-26T11:22:26;19.60;99.90
17385;DHT22;8810;48.680;8.894;2022-10-26T11:24:57;19.60;99.90
17385;DHT22;8810;48.680;8.894;2022-10-26T11:27:29;19.60;99.90
17385;DHT22;8810;48.680;8.894;2022-10-26T11:30:02;19.70;99.90
17385;DHT22;8810;48.680;8.894;2022-10-26T11:32:35;19.70;99.90
17385;DHT22;8810;48.680;8.894;2022-10-26T11:35:10;19.70;99.90
17385;DHT22;8810;48.680;8.894;2022-10-26T11:37:44;19.80;99.90
17385;DHT22;8810;48.680;8.894;2022-10-26T11:40:21;19.90;99.90
17385;DHT22;8810;48.680;8.894;2022-10-26T11:42:55;19.90;99.90
17385;DHT22;8810;48.680;8.894;2022-10-26T11:45:29;20.00;99.90
17385;DHT22;8810;48.680;8.894;2022-10-26T11:48:01;20.10;99.90
17385;DHT22;8810;48.680;8.894;2022-10-26T11:50:32;20.20;99.90
17385;DHT22;8810;48.680;8.894;2022-10-26T11:53:03;20.20;99.90
17385;DHT22;8810;48.680;8.894;2022-10-26T11:55:31;20.20;99.90
17385;DHT22;8810;48.680;8.894;2022-10-26T11:57:59;20.20;99.90
17385;DHT22;8810;48.680;8.894;2022-10-26T12:00:29;20.20;99.90
17385;DHT22;8810;48.680;8.894;2022-10-26T12:03:01;20.20;99.90
17385;DHT22;8810;48.680;8.894;2022-10-26T12:05:35;20.20;99.90
17385;DHT22;8810;48.680;8.894;2022-10-26T12:08:13;20.20;99.90
17385;DHT22;8810;48.680;8.894;2022-10-26T12:10:43;20.20;99.90
17385;DHT22;8810;48.680;8.894;2022-10-26T12:13:20;20.20;99.90
17385;DHT22;8810;48.680;8.894;2022-10-26T12:15:56;20.10;99.90
17385;DHT22;8810;48.680;8.894;2022-10-26T12:18:32;20.20;99.90
17385;DHT22;8810;48.680;8.894;2022-10-26T12:21:02;20.20;99.90
17385;DHT22;8810;48.680;8.894;2022-10-26T12:23:32;20.30;99.90
17385;DHT22;8810;48.680;8.894;2022-10-26T12:29:24;20.70;99.90
17385;DHT22;8810;48.680;8.894;2022-10-26T12:31:53;20.90;99.90
17385;DHT22;8810;48.680;8.894;2022-10-26T12:34:22;21.30;99.90
17385;DHT22;8810;48.680;8.894;2022-10-26T12:37:09;21.60;99.90
17385;DHT22;8810;48.680;8.894;2022-10-26T12:39:38;21.90;99.90
17385;DHT22;8810;48.680;8.894;2022-10-26T12:42:27;22.10;99.90
17385;DHT22;8810;48.680;8.894;2022-10-26T12:45:16;22.20;99.90
17385;DHT22;8810;48.680;8.894;2022-10-26T12:48:02;22.40;99.90
17385;DHT22;8810;48.680;8.894;2022-10-26T12:50:29;22.60;99.90
17385;DHT22;8810;48.680;8.894;2022-10-26T12:52:57;22.90;99.90
17385;DHT22;8810;48.680;8.894;2022-10-26T12:55:49;23.10;99.90
17385;DHT22;8810;48.680;8.894;2022-10-26T13:01:33;23.10;99.90
17385;DHT22;8810;48.680;8.894;2022-10-26T13:04:20;23.20;99.90
17385;DHT22;8810;48.680;8.894;2022-10-26T13:07:08;23.30;99.90
17385;DHT22;8810;48.680;8.894;2022-10-26T13:09:38;23.60;99.90
17385;DHT22;8810;48.680;8.894;2022-10-26T13:12:10;23.70;99.90
17385;DHT22;8810;48.680;8.894;2022-10-26T13:14:39;23.80;99.90
17385;DHT22;8810;48.680;8.894;2022-10-26T13:17:21;23.90;99.90
17385;DHT22;8810;48.680;8.894;2022-10-26T13:19:55;24.00;99.90
17385;DHT22;8810;48.680;8.894;2022-10-26T13:22:23;24.00;99.90
17385;DHT22;8810;48.680;8.894;2022-10-26T13:24:52;23.90;99.90
17385;DHT22;8810;48.680;8.894;2022-10-26T13:27:42;23.90;99.90
17385;DHT22;8810;48.680;8.894;2022-10-26T13:33:14;23.80;99.90
17385;DHT22;8810;48.680;8.894;2022-10-26T13:35:43;23.80;99.90
17385;DHT22;8810;48.680;8.894;2022-10-26T13:38:12;23.80;99.90
17385;DHT22;8810;48.680;8.894;2022-10-26T13:40:43;23.90;99.90
17385;DHT22;8810;48.680;8.894;2022-10-26T13:43:15;24.00;99.90
17385;DHT22;8810;48.680;8.894;2022-10-26T13:45:50;24.00;99.90
17385;DHT22;8810;48.680;8.894;2022-10-26T13:48:25;24.00;99.90
17385;DHT22;8810;48.680;8.894;2022-10-26T13:50:58;23.90;99.90
17385;DHT22;8810;48.680;8.894;2022-10-26T13:53:35;24.00;99.90
17385;DHT22;8810;48.680;8.894;2022-10-26T13:56:08;24.00;99.90
17385;DHT22;8810;48.680;8.894;2022-10-26T13:58:43;23.90;99.90
17385;DHT22;8810;48.680;8.894;2022-10-26T14:01:15;23.90;99.90
17385;DHT22;8810;48.680;8.894;2022-10-26T14:03:43;24.00;99.90
17385;DHT22;8810;48.680;8.894;2022-10-26T14:06:16;23.70;99.90
17385;DHT22;8810;48.680;8.894;2022-10-26T14:08:44;23.50;99.90
17385;DHT22;8810;48.680;8.894;2022-10-26T14:11:17;23.50;99.90
17385;DHT22;8810;48.680;8.894;2022-10-26T14:13:46;23.40;99.90
17385;DHT22;8810;48.680;8.894;2022-10-26T14:16:15;23.40;99.90
17385;DHT22;8810;48.680;8.894;2022-10-26T14:18:44;23.40;99.90
17385;DHT22;8810;48.680;8.894;2022-10-26T14:21:15;23.30;99.90
17385;DHT22;8810;48.680;8.894;2022-10-26T14:23:46;23.30;99.90
17385;DHT22;8810;48.680;8.894;2022-10-26T14:26:22;23.40;99.90
17385;DHT22;8810;48.680;8.894;2022-10-26T14:28:51;23.40;99.90
17385;DHT22;8810;48.680;8.894;2022-10-26T14:31:23;23.40;99.90
17385;DHT22;8810;48.680;8.894;2022-10-26T14:33:51;23.50;99.90
17385;DHT22;8810;48.680;8.894;2022-10-26T14:36:22;23.30;99.90
17385;DHT22;8810;48.680;8.894;2022-10-26T14:38:54;23.30;99.90
17385;DHT22;8810;48.680;8.894;2022-10-26T14:41:23;23.20;99.90
17385;DHT22;8810;48.680;8.894;2022-10-26T14:43:51;23.10;99.90
17385;DHT22;8810;48.680;8.894;2022-10-26T14:46:19;22.90;99.90
17385;DHT22;8810;48.680;8.894;2022-10-26T14:48:51;22.70;99.90
17385;DHT22;8810;48.680;8.894;2022-10-26T14:51:26;22.70;99.90
17385;DHT22;8810;48.680;8.894;2022-10-26T14:53:55;22.60;99.90
17385;DHT22;8810;48.680;8.894;2022-10-26T14:56:28;22.60;99.90
17385;DHT22;8810;48.680;8.894;2022-10-26T14:58:56;22.70;99.90
17385;DHT22;8810;48.680;8.894;2022-10-26T15:01:30;22.70;99.90
17385;DHT22;8810;48.680;8.894;2022-10-26T15:03:59;22.60;99.90
17385;DHT22;8810;48.680;8.894;2022-10-26T15:06:40;22.60;99.90
17385;DHT22;8810;48.680;8.894;2022-10-26T15:09:36;22.60;99.90
17385;DHT22;8810;48.680;8.894;2022-10-26T15:12:04;22.50;99.90
17385;DHT22;8810;48.680;8.894;2022-10-26T15:14:31;22.40;99.90
17385;DHT22;8810;48.680;8.894;2022-10-26T15:16:59;22.30;99.90
17385;DHT22;8810;48.680;8.894;2022-10-26T15:19:27;22.20;99.90
17385;DHT22;8810;48.680;8.894;2022-10-26T15:21:55;22.10;99.90
17385;DHT22;8810;48.680;8.894;2022-10-26T15:24:31;22.00;99.90
17385;DHT22;8810;48.680;8.894;2022-10-26T15:26:59;22.00;99.90
17385;DHT22;8810;48.680;8.894;2022-10-26T15:29:47;21.90;99.90
17385;DHT22;8810;48.680;8.894;2022-10-26T15:32:28;21.70;99.90
17385;DHT22;8810;48.680;8.894;2022-10-26T15:35:19;21.60;99.90
17385;DHT22;8810;48.680;8.894;2022-10-26T15:37:49;21.40;99.90
17385;DHT22;8810;48.680;8.894;2022-10-26T15:40:17;21.20;99.90
17385;DHT22;8810;48.680;8.894;2022-10-26T15:42:47;21.00;99.90
17385;DHT22;8810;48.680;8.894;2022-10-26T15:45:17;20.80;99.90
17385;DHT22;8810;48.680;8.894;2022-10-26T15:47:45;20.60;99.90
17385;DHT22;8810;48.680;8.894;2022-10-26T15:50:13;20.50;99.90
17385;DHT22;8810;48.680;8.894;2022-10-26T15:52:40;20.20;99.90
17385;DHT22;8810;48.680;8.894;2022-10-26T15:55:09;20.10;99.90
17385;DHT22;8810;48.680;8.894;2022-10-26T15:57:36;19.90;99.90
17385;DHT22;8810;48.680;8.894;2022-10-26T16:00:05;19.80;99.90
17385;DHT22;8810;48.680;8.894;2022-10-26T16:02:33;19.60;99.90
17385;DHT22;8810;48.680;8.894;2022-10-26T16:05:00;19.50;99.90
17385;DHT22;8810;48.680;8.894;2022-10-26T16:07:27;19.30;99.90
17385;DHT22;8810;48.680;8.894;2022-10-26T16:09:54;19.20;99.90
17385;DHT22;8810;48.680;8.894;2022-10-26T16:12:22;19.00;99.90
17385;DHT22;8810;48.680;8.894;2022-10-26T16:14:49;18.80;99.90
17385;DHT22;8810;48.680;8.894;2022-10-26T16:17:16;18.70;99.90
17385;DHT22;8810;48.680;8.894;2022-10-26T16:19:43;18.50;99.90